Time,TemperatureF,DewpointF,PressureIn,WindDirection,WindDirectionDegrees,WindSpeedMPH,WindSpeedGustMPH,Humidity,HourlyPrecipIn,Conditions,Clouds,dailyrainin,SoftwareType,DateUTC
2013-05-23 00:12:00,41.0,-99.9,30.16,South,188,4.0,5.0,-999,-99.99,,,-99.99,,2013-05-23 08:12:00,
2013-05-23 00:22:00,41.0,-99.9,30.16,SSW,195,6.0,6.0,-999,-99.99,,,-99.99,,2013-05-23 08:22:00,
2013-05-23 00:32:00,41.0,-99.9,30.16,South,189,4.0,5.0,-999,-99.99,,,-99.99,,2013-05-23 08:32:00,
2013-05-23 00:42:00,41.0,-99.9,30.16,South,175,4.0,5.0,-999,-99.99,,,-99.99,,2013-05-23 08:42:00,
2013-05-23 00:52:00,41.0,-99.9,30.16,South,172,5.0,6.0,-999,-99.99,,,-99.99,,2013-05-23 08:52:00,
2013-05-23 01:02:00,41.0,-99.9,30.16,South,172,5.0,5.0,-999,-99.99,,,-99.99,,2013-05-23 09:02:00,
2013-05-23 01:11:00,41.0,-99.9,30.16,South,182,4.0,5.0,-999,-99.99,,,-99.99,,2013-05-23 09:11:00,
2013-05-23 01:22:00,41.0,-99.9,30.16,South,172,5.0,6.0,-999,-99.99,,,-99.99,,2013-05-23 09:22:00,
2013-05-23 01:33:00,42.0,-99.9,30.16,South,181,4.0,5.0,-999,-99.99,,,-99.99,,2013-05-23 09:33:00,
2013-05-23 01:42:00,42.0,-99.9,30.16,South,173,4.0,4.0,-999,-99.99,,,-99.99,,2013-05-23 09:42:00,
2013-05-23 01:53:00,42.0,-99.9,30.16,South,181,4.0,4.0,-999,-99.99,,,-99.99,,2013-05-23 09:53:00,
2013-05-23 02:03:00,42.0,-99.9,30.16,South,186,3.0,4.0,-999,-99.99,,,-99.99,,2013-05-23 10:03:00,
2013-05-23 02:13:00,42.0,-99.9,30.16,South,179,2.0,2.0,-999,-99.99,,,-99.99,,2013-05-23 10:13:00,
2013-05-23 02:22:00,41.0,-99.9,30.16,SSW,192,2.0,2.0,-999,-99.99,,,-99.99,,2013-05-23 10:22:00,
2013-05-23 02:32:00,41.0,-99.9,30.16,SW,215,-999.0,1.0,-999,-99.99,,,-99.99,,2013-05-23 10:32:00,
2013-05-23 02:42:00,41.0,-99.9,30.16,North,-999,-999.0,-999.0,-999,-99.99,,,-99.99,,2013-05-23 10:42:00,
2013-05-23 02:52:00,41.0,-99.9,30.16,WSW,247,-999.0,0.0,-999,-99.99,,,-99.99,,2013-05-23 10:52:00,
2013-05-23 03:02:00,41.0,-99.9,30.16,North,-999,-999.0,-999.0,-999,-99.99,,,-99.99,,2013-05-23 11:02:00,
2013-05-23 03:12:00,41.0,-99.9,30.16,North,-999,-999.0,-999.0,-999,-99.99,,,-99.99,,2013-05-23 11:12:00,
2013-05-23 03:22:00,41.0,-99.9,30.16,North,-999,-999.0,-999.0,-999,-99.99,,,-99.99,,2013-05-23 11:22:00,
2013-05-23 03:32:00,41.0,-99.9,30.16,North,-999,-999.0,-999.0,-999,-99.99,,,-99.99,,2013-05-23 11:32:00,
2013-05-23 03:42:00,41.0,-99.9,30.16,North,-999,-999.0,-999.0,-999,-99.99,,,-99.99,,2013-05-23 11:42:00,
2013-05-23 03:52:00,41.0,-99.9,30.16,North,-999,-999.0,-999.0,-999,-99.99,,,-99.99,,2013-05-23 11:52:00,
2013-05-23 04:02:00,41.0,-99.9,30.16,NE,41,1.0,2.0,-999,-99.99,,,-99.99,,2013-05-23 12:02:00,
2013-05-23 04:12:00,41.0,-99.9,30.16,East,98,1.0,1.0,-999,-99.99,,,-99.99,,2013-05-23 12:12:00,
2013-05-23 04:22:00,41.0,-99.9,30.16,East,99,1.0,2.0,-999,-99.99,,,-99.99,,2013-05-23 12:22:00,
2013-05-23 04:33:00,41.0,-99.9,30.16,ENE,78,1.0,2.0,-999,-99.99,,,-99.99,,2013-05-23 12:33:00,
2013-05-23 04:42:00,41.0,-99.9,30.16,ENE,72,2.0,2.0,-999,-99.99,,,-99.99,,2013-05-23 12:42:00,
2013-05-23 04:52:00,41.0,-99.9,30.16,NE,38,2.0,3.0,-999,-99.99,,,-99.99,,2013-05-23 12:52:00,
2013-05-23 05:02:00,41.0,-99.9,30.16,ENE,62,3.0,4.0,-999,-99.99,,,-99.99,,2013-05-23 13:02:00,
2013-05-23 05:11:00,41.0,-99.9,30.16,East,84,3.0,4.0,-999,-99.99,,,-99.99,,2013-05-23 13:11:00,
2013-05-23 05:22:00,41.0,-99.9,30.16,ENE,71,2.0,3.0,-999,-99.99,,,-99.99,,2013-05-23 13:22:00,
2013-05-23 05:32:00,41.0,-99.9,30.16,ENE,66,2.0,2.0,-999,-99.99,,,-99.99,,2013-05-23 13:32:00,
2013-05-23 05:42:00,41.0,-99.9,30.16,NNE,25,1.0,2.0,-999,-99.99,,,-99.99,,2013-05-23 13:42:00,
2013-05-23 05:52:00,41.0,-99.9,30.16,NE,54,1.0,2.0,-999,-99.99,,,-99.99,,2013-05-23 13:52:00,
2013-05-23 06:02:00,41.0,-99.9,30.16,NNE,16,1.0,2.0,-999,-99.99,,,-99.99,,2013-05-23 14:02:00,
2013-05-23 06:11:00,42.0,-99.9,30.16,NNE,32,2.0,2.0,-999,-99.99,,,-99.99,,2013-05-23 14:11:00,
2013-05-23 06:22:00,42.0,-99.9,30.16,NE,34,1.0,2.0,-999,-99.99,,,-99.99,,2013-05-23 14:22:00,
2013-05-23 06:32:00,42.0,-99.9,30.16,NNE,30,3.0,4.0,-999,-99.99,,,-99.99,,2013-05-23 14:32:00,
2013-05-23 06:42:00,42.0,-99.9,30.16,NE,54,3.0,4.0,-999,-99.99,,,-99.99,,2013-05-23 14:42:00,
2013-05-23 06:52:00,42.0,-99.9,30.16,NE,52,3.0,4.0,-999,-99.99,,,-99.99,,2013-05-23 14:52:00,
2013-05-23 07:01:00,42.0,-99.9,30.16,ENE,70,3.0,4.0,-999,-99.99,,,-99.99,,2013-05-23 15:01:00,
2013-05-23 07:11:00,42.0,-99.9,30.16,NE,43,2.0,3.0,-999,-99.99,,,-99.99,,2013-05-23 15:11:00,
2013-05-23 07:22:00,42.0,-99.9,30.16,NE,39,2.0,3.0,-999,-99.99,,,-99.99,,2013-05-23 15:22:00,
2013-05-23 07:33:00,42.0,-99.9,30.16,NNE,12,2.0,2.0,-999,-99.99,,,-99.99,,2013-05-23 15:33:00,
2013-05-23 07:43:00,42.0,-99.9,30.16,North,4,4.0,5.0,-999,-99.99,,,-99.99,,2013-05-23 15:43:00,
2013-05-23 07:53:00,41.0,-99.9,30.16,North,4,4.0,5.0,-999,-99.99,,,-99.99,,2013-05-23 15:53:00,
2013-05-23 08:03:00,42.0,-99.9,30.16,NNE,13,3.0,5.0,-999,-99.99,,,-99.99,,2013-05-23 16:03:00,
2013-05-23 08:13:00,42.0,-99.9,30.16,North,1,3.0,4.0,-999,-99.99,,,-99.99,,2013-05-23 16:13:00,
2013-05-23 08:23:00,42.0,-99.9,30.16,NNE,13,2.0,4.0,-999,-99.99,,,-99.99,,2013-05-23 16:23:00,
2013-05-23 08:34:00,43.0,-99.9,30.16,NNE,30,2.0,3.0,-999,-99.99,,,-99.99,,2013-05-23 16:34:00,
2013-05-23 08:43:00,42.0,-99.9,30.16,North,352,3.0,4.0,-999,-99.99,,,-99.99,,2013-05-23 16:43:00,
2013-05-23 08:53:00,42.0,-99.9,30.16,NNW,347,3.0,4.0,-999,-99.99,,,-99.99,,2013-05-23 16:53:00,
2013-05-23 09:03:00,41.0,-99.9,30.17,North,353,6.0,7.0,-999,-99.99,,,-99.99,,2013-05-23 17:03:00,
2013-05-23 09:12:00,41.0,-99.9,30.17,North,353,6.0,7.0,-999,-99.99,,,-99.99,,2013-05-23 17:12:00,
2013-05-23 09:23:00,41.0,-99.9,30.17,North,352,7.0,7.0,-999,-99.99,,,-99.99,,2013-05-23 17:23:00,
2013-05-23 09:34:00,42.0,-99.9,30.17,North,6,6.0,7.0,-999,-99.99,,,-99.99,,2013-05-23 17:34:00,
2013-05-23 09:43:00,42.0,-99.9,30.17,North,10,6.0,7.0,-999,-99.99,,,-99.99,,2013-05-23 17:43:00,
2013-05-23 09:53:00,43.0,-99.9,30.17,North,7,5.0,6.0,-999,-99.99,,,-99.99,,2013-05-23 17:53:00,
2013-05-23 10:02:00,44.0,-99.9,30.17,North,360,6.0,7.0,-999,-99.99,,,-99.99,,2013-05-23 18:02:00,
2013-05-23 10:11:00,44.0,-99.9,30.17,North,359,6.0,8.0,-999,-99.99,,,-99.99,,2013-05-23 18:11:00,
2013-05-23 10:22:00,43.0,-99.9,30.17,North,352,7.0,9.0,-999,-99.99,,,-99.99,,2013-05-23 18:22:00,
2013-05-23 10:32:00,42.0,-99.9,30.16,North,352,10.0,11.0,-999,-99.99,,,-99.99,,2013-05-23 18:32:00,
2013-05-23 10:42:00,42.0,-99.9,30.16,North,355,10.0,10.0,-999,-99.99,,,-99.99,,2013-05-23 18:42:00,
2013-05-23 10:52:00,42.0,-99.9,30.16,North,355,9.0,10.0,-999,-99.99,,,-99.99,,2013-05-23 18:52:00,
2013-05-23 11:02:00,43.0,-99.9,30.16,North,356,9.0,10.0,-999,-99.99,,,-99.99,,2013-05-23 19:02:00,
2013-05-23 11:11:00,42.0,-99.9,30.16,North,355,11.0,11.0,-999,-99.99,,,-99.99,,2013-05-23 19:11:00,
2013-05-23 11:22:00,42.0,-99.9,30.16,North,350,11.0,11.0,-999,-99.99,,,-99.99,,2013-05-23 19:22:00,
2013-05-23 11:32:00,42.0,-99.9,30.16,North,353,13.0,13.0,-999,-99.99,,,-99.99,,2013-05-23 19:32:00,
2013-05-23 11:42:00,44.0,-99.9,30.16,North,359,11.0,12.0,-999,-99.99,,,-99.99,,2013-05-23 19:42:00,
2013-05-23 11:52:00,45.0,-99.9,30.16,North,356,11.0,11.0,-999,-99.99,,,-99.99,,2013-05-23 19:52:00,
2013-05-23 12:02:00,46.0,-99.9,30.16,North,355,9.0,12.0,-999,-99.99,,,-99.99,,2013-05-23 20:02:00,
2013-05-23 12:12:00,46.0,-99.9,30.16,North,354,9.0,10.0,-999,-99.99,,,-99.99,,2013-05-23 20:12:00,
2013-05-23 12:22:00,46.0,-99.9,30.16,North,354,9.0,10.0,-999,-99.99,,,-99.99,,2013-05-23 20:22:00,
2013-05-23 12:32:00,45.0,-99.9,30.16,NNW,344,9.0,10.0,-999,-99.99,,,-99.99,,2013-05-23 20:32:00,
2013-05-23 12:42:00,45.0,-99.9,30.16,NNW,340,10.0,11.0,-999,-99.99,,,-99.99,,2013-05-23 20:42:00,
2013-05-23 12:52:00,44.0,-99.9,30.16,NNW,347,11.0,12.0,-999,-99.99,,,-99.99,,2013-05-23 20:52:00,
2013-05-23 13:01:00,45.0,-99.9,30.15,NNW,348,11.0,11.0,-999,-99.99,,,-99.99,,2013-05-23 21:01:00,
2013-05-23 13:11:00,45.0,-99.9,30.15,North,354,5.0,8.0,-999,-99.99,,,-99.99,,2013-05-23 21:11:00,
2013-05-23 13:22:00,45.0,-99.9,30.15,North,8,5.0,7.0,-999,-99.99,,,-99.99,,2013-05-23 21:22:00,
2013-05-23 13:33:00,45.0,-99.9,30.15,North,353,9.0,10.0,-999,-99.99,,,-99.99,,2013-05-23 21:33:00,
2013-05-23 13:43:00,45.0,-99.9,30.15,North,-999,9.0,10.0,-999,-99.99,,,-99.99,,2013-05-23 21:43:00,
2013-05-23 13:53:00,45.0,-99.9,30.15,NNW,347,11.0,12.0,-999,-99.99,,,-99.99,,2013-05-23 21:53:00,
2013-05-23 14:03:00,45.0,-99.9,30.15,West,269,1.0,8.0,-999,-99.99,,,-99.99,,2013-05-23 22:03:00,
2013-05-23 14:12:00,46.0,-99.9,30.15,North,6,2.0,6.0,-999,-99.99,,,-99.99,,2013-05-23 22:12:00,
2013-05-23 14:23:00,47.0,-99.9,30.15,North,359,1.0,3.0,-999,-99.99,,,-99.99,,2013-05-23 22:23:00,
2013-05-23 14:33:00,44.0,-99.9,30.15,NW,313,7.0,9.0,-999,-99.99,,,-99.99,,2013-05-23 22:33:00,
2013-05-23 14:42:00,43.0,-99.9,30.14,NW,325,10.0,11.0,-999,-99.99,,,-99.99,,2013-05-23 22:42:00,
2013-05-23 14:52:00,42.0,-99.9,30.14,NW,314,10.0,11.0,-999,-99.99,,,-99.99,,2013-05-23 22:52:00,
2013-05-23 15:02:00,43.0,-99.9,30.15,NW,310,7.0,9.0,-999,-99.99,,,-99.99,,2013-05-23 23:02:00,
2013-05-23 15:12:00,44.0,-99.9,30.15,WNW,296,6.0,8.0,-999,-99.99,,,-99.99,,2013-05-23 23:12:00,
2013-05-23 15:22:00,44.0,-99.9,30.15,WNW,297,7.0,9.0,-999,-99.99,,,-99.99,,2013-05-23 23:22:00,
2013-05-23 15:32:00,44.0,-99.9,30.15,NW,307,5.0,7.0,-999,-99.99,,,-99.99,,2013-05-23 23:32:00,
2013-05-23 15:42:00,45.0,-99.9,30.15,WNW,291,4.0,5.0,-999,-99.99,,,-99.99,,2013-05-23 23:42:00,
2013-05-23 15:52:00,45.0,-99.9,30.15,NW,307,4.0,5.0,-999,-99.99,,,-99.99,,2013-05-23 23:52:00,
2013-05-23 16:01:00,44.0,-99.9,30.15,NW,324,4.0,5.0,-999,-99.99,,,-99.99,,2013-05-24 00:01:00,
2013-05-23 16:12:00,45.0,-99.9,30.15,WNW,287,3.0,4.0,-999,-99.99,,,-99.99,,2013-05-24 00:12:00,
2013-05-23 16:22:00,45.0,-99.9,30.15,WNW,299,4.0,5.0,-999,-99.99,,,-99.99,,2013-05-24 00:22:00,
2013-05-23 16:32:00,44.0,-99.9,30.15,NW,310,6.0,6.0,-999,-99.99,,,-99.99,,2013-05-24 00:32:00,
2013-05-23 16:42:00,44.0,-99.9,30.15,NW,311,6.0,7.0,-999,-99.99,,,-99.99,,2013-05-24 00:42:00,
2013-05-23 16:52:00,44.0,-99.9,30.15,NW,313,6.0,8.0,-999,-99.99,,,-99.99,,2013-05-24 00:52:00,
2013-05-23 17:01:00,45.0,-99.9,30.14,NW,316,7.0,8.0,-999,-99.99,,,-99.99,,2013-05-24 01:01:00,
2013-05-23 17:12:00,46.0,-99.9,30.14,NW,309,9.0,9.0,-999,-99.99,,,-99.99,,2013-05-24 01:12:00,
2013-05-23 17:22:00,44.0,-99.9,30.14,NW,315,9.0,10.0,-999,-99.99,,,-99.99,,2013-05-24 01:22:00,
2013-05-23 17:32:00,44.0,-99.9,30.14,NW,315,8.0,10.0,-999,-99.99,,,-99.99,,2013-05-24 01:32:00,
2013-05-23 17:42:00,44.0,-99.9,30.14,NW,311,6.0,8.0,-999,-99.99,,,-99.99,,2013-05-24 01:42:00,
2013-05-23 17:52:00,44.0,-99.9,30.14,NNW,334,5.0,6.0,-999,-99.99,,,-99.99,,2013-05-24 01:52:00,
2013-05-23 18:02:00,44.0,-99.9,30.14,NNW,342,6.0,9.0,-999,-99.99,,,-99.99,,2013-05-24 02:02:00,
2013-05-23 18:12:00,44.0,-99.9,30.14,NNW,329,6.0,10.0,-999,-99.99,,,-99.99,,2013-05-24 02:12:00,
2013-05-23 18:22:00,44.0,-99.9,30.14,North,354,3.0,4.0,-999,-99.99,,,-99.99,,2013-05-24 02:22:00,
2013-05-23 18:32:00,44.0,-99.9,30.14,North,351,3.0,4.0,-999,-99.99,,,-99.99,,2013-05-24 02:32:00,
2013-05-23 18:42:00,45.0,-99.9,30.14,North,356,5.0,6.0,-999,-99.99,,,-99.99,,2013-05-24 02:42:00,
2013-05-23 18:52:00,46.0,-99.9,30.13,North,351,4.0,6.0,-999,-99.99,,,-99.99,,2013-05-24 02:52:00,
2013-05-23 19:02:00,45.0,-99.9,30.13,NNW,328,5.0,5.0,-999,-99.99,,,-99.99,,2013-05-24 03:02:00,
2013-05-23 19:11:00,46.0,-99.9,30.13,NNW,334,6.0,7.0,-999,-99.99,,,-99.99,,2013-05-24 03:11:00,
2013-05-23 19:22:00,46.0,-99.9,30.13,NNW,339,5.0,6.0,-999,-99.99,,,-99.99,,2013-05-24 03:22:00,
2013-05-23 19:33:00,47.0,-99.9,30.13,NNW,337,6.0,6.0,-999,-99.99,,,-99.99,,2013-05-24 03:33:00,
2013-05-23 19:43:00,47.0,-99.9,30.13,NNW,332,6.0,6.0,-999,-99.99,,,-99.99,,2013-05-24 03:43:00,
2013-05-23 19:53:00,47.0,-99.9,30.12,NNW,332,5.0,6.0,-999,-99.99,,,-99.99,,2013-05-24 03:53:00,
2013-05-23 20:03:00,47.0,-99.9,30.12,NNW,336,7.0,7.0,-999,-99.99,,,-99.99,,2013-05-24 04:03:00,
2013-05-23 20:13:00,47.0,-99.9,30.12,NNW,334,8.0,9.0,-999,-99.99,,,-99.99,,2013-05-24 04:13:00,
2013-05-23 20:23:00,47.0,-99.9,30.12,NNW,328,7.0,9.0,-999,-99.99,,,-99.99,,2013-05-24 04:23:00,
2013-05-23 20:33:00,47.0,-99.9,30.12,NW,326,8.0,8.0,-999,-99.99,,,-99.99,,2013-05-24 04:33:00,
2013-05-23 20:42:00,47.0,-99.9,30.12,NW,320,7.0,8.0,-999,-99.99,,,-99.99,,2013-05-24 04:42:00,
2013-05-23 20:53:00,47.0,-99.9,30.12,NNW,329,7.0,8.0,-999,-99.99,,,-99.99,,2013-05-24 04:53:00,
2013-05-23 21:02:00,47.0,-99.9,30.12,NW,326,6.0,7.0,-999,-99.99,,,-99.99,,2013-05-24 05:02:00,
2013-05-23 21:12:00,47.0,-99.9,30.12,NW,325,7.0,7.0,-999,-99.99,,,-99.99,,2013-05-24 05:12:00,
2013-05-23 21:22:00,48.0,-99.9,30.12,NNW,331,5.0,6.0,-999,-99.99,,,-99.99,,2013-05-24 05:22:00,
2013-05-23 21:32:00,47.0,-99.9,30.12,NNW,327,7.0,7.0,-999,-99.99,,,-99.99,,2013-05-24 05:32:00,
2013-05-23 21:42:00,47.0,-99.9,30.11,NNW,337,6.0,7.0,-999,-99.99,,,-99.99,,2013-05-24 05:42:00,
2013-05-23 21:52:00,48.0,-99.9,30.11,NNW,347,5.0,5.0,-999,-99.99,,,-99.99,,2013-05-24 05:52:00,
2013-05-23 22:02:00,48.0,-99.9,30.11,North,353,5.0,6.0,-999,-99.99,,,-99.99,,2013-05-24 06:02:00,
2013-05-23 22:12:00,47.0,-99.9,30.11,NNW,345,5.0,6.0,-999,-99.99,,,-99.99,,2013-05-24 06:12:00,
2013-05-23 22:22:00,47.0,-99.9,30.11,NNW,343,3.0,5.0,-999,-99.99,,,-99.99,,2013-05-24 06:22:00,
2013-05-23 22:32:00,47.0,-99.9,30.11,NNW,338,2.0,3.0,-999,-99.99,,,-99.99,,2013-05-24 06:32:00,
2013-05-23 22:42:00,47.0,-99.9,30.12,North,352,1.0,3.0,-999,-99.99,,,-99.99,,2013-05-24 06:42:00,
2013-05-23 22:52:00,47.0,-99.9,30.12,NNW,335,2.0,4.0,-999,-99.99,,,-99.99,,2013-05-24 06:52:00,
2013-05-23 23:02:00,47.0,-99.9,30.12,NNW,347,2.0,3.0,-999,-99.99,,,-99.99,,2013-05-24 07:02:00,
2013-05-23 23:11:00,47.0,-99.9,30.12,North,7,2.0,2.0,-999,-99.99,,,-99.99,,2013-05-24 07:11:00,
2013-05-23 23:22:00,47.0,-99.9,30.12,North,4,2.0,2.0,-999,-99.99,,,-99.99,,2013-05-24 07:22:00,
2013-05-23 23:32:00,47.0,-99.9,30.12,North,355,2.0,2.0,-999,-99.99,,,-99.99,,2013-05-24 07:32:00,
2013-05-23 23:42:00,46.0,-99.9,30.11,West,275,0.0,1.0,-999,-99.99,,,-99.99,,2013-05-24 07:42:00,
2013-05-23 23:52:00,46.0,-99.9,30.11,WSW,246,-999.0,0.0,-999,-99.99,,,-99.99,,2013-05-24 07:52:00,